createdAt,value
2018-09-24T00:00:23.301Z,8.10
2018-09-24T00:03:28.057Z,8.00
2018-09-24T00:06:32.242Z,8.10
2018-09-24T00:09:36.386Z,8.10
2018-09-24T00:12:40.720Z,8.20
2018-09-24T00:15:44.798Z,8.10
2018-09-24T00:18:48.939Z,8.20
2018-09-24T00:21:53.029Z,8.10
2018-09-24T00:24:57.133Z,8.10
2018-09-24T00:28:01.314Z,8.20
2018-09-24T00:31:05.772Z,8.30
2018-09-24T00:34:10.008Z,8.40
2018-09-24T00:37:14.061Z,8.40
2018-09-24T00:40:24.947Z,8.50
2018-09-24T00:43:29.084Z,8.40
2018-09-24T00:46:33.233Z,8.30
2018-09-24T00:49:37.486Z,8.30
2018-09-24T00:52:41.614Z,8.20
2018-09-24T00:55:45.736Z,8.20
2018-09-24T00:58:49.815Z,8.30
2018-09-24T01:01:53.914Z,8.40
2018-09-24T01:04:58.020Z,8.40
2018-09-24T01:08:02.171Z,8.40
2018-09-24T01:11:06.284Z,8.50
2018-09-24T01:14:10.369Z,8.60
2018-09-24T01:17:14.580Z,8.70
2018-09-24T01:20:18.658Z,8.70
2018-09-24T01:23:22.716Z,8.60
2018-09-24T01:26:26.838Z,8.60
2018-09-24T01:29:31.057Z,8.60
2018-09-24T01:32:35.197Z,8.50
2018-09-24T01:35:39.337Z,8.50
2018-09-24T01:38:43.356Z,8.40
2018-09-24T01:41:47.508Z,8.30
2018-09-24T01:44:51.594Z,8.30
2018-09-24T01:47:55.686Z,8.30
2018-09-24T01:50:59.823Z,8.40
2018-09-24T01:54:05.047Z,8.40
2018-09-24T01:57:16.759Z,8.40
2018-09-24T02:00:20.824Z,8.30
2018-09-24T02:03:33.218Z,8.40
2018-09-24T02:06:37.301Z,8.20
2018-09-24T02:09:41.513Z,8.20
2018-09-24T02:12:46.690Z,8.20
2018-09-24T02:15:50.894Z,8.10
2018-09-24T02:19:01.854Z,8.20
2018-09-24T02:22:05.957Z,8.20
2018-09-24T02:25:10.045Z,8.20
2018-09-24T02:28:14.205Z,8.20
2018-09-24T02:31:18.308Z,8.10
2018-09-24T02:34:26.915Z,8.10
2018-09-24T02:37:31.290Z,8.10
2018-09-24T02:40:35.508Z,8.00
2018-09-24T02:43:39.558Z,8.10
2018-09-24T02:46:44.825Z,8.10
2018-09-24T02:49:48.937Z,8.10
2018-09-24T02:52:53.059Z,8.10
2018-09-24T02:55:57.142Z,8.20
2018-09-24T02:59:01.377Z,8.30
2018-09-24T03:02:05.616Z,8.30
2018-09-24T03:05:09.706Z,8.20
2018-09-24T03:08:14.536Z,8.30
2018-09-24T03:11:18.623Z,8.30
2018-09-24T03:14:25.094Z,8.30
2018-09-24T03:17:29.407Z,8.40
2018-09-24T03:20:45.298Z,8.40
2018-09-24T03:23:50.802Z,8.40
2018-09-24T03:26:54.903Z,8.40
2018-09-24T03:29:59.349Z,8.40
2018-09-24T03:33:03.886Z,8.40
2018-09-24T03:36:07.959Z,8.50
2018-09-24T03:39:12.176Z,8.50
2018-09-24T03:42:16.266Z,8.60
2018-09-24T03:45:20.652Z,8.60
2018-09-24T03:48:24.765Z,8.70
2018-09-24T03:51:29.088Z,8.60
2018-09-24T03:54:33.265Z,8.60
2018-09-24T03:57:37.577Z,8.50
2018-09-24T04:00:41.706Z,8.50
2018-09-24T04:03:45.792Z,8.50
2018-09-24T04:06:55.316Z,8.50
2018-09-24T04:10:05.315Z,8.50
2018-09-24T04:13:14.722Z,8.50
2018-09-24T04:16:24.269Z,8.50
2018-09-24T04:19:33.712Z,8.50
2018-09-24T04:22:43.395Z,8.50
2018-09-24T04:25:52.773Z,8.50
2018-09-24T04:29:02.164Z,8.60
2018-09-24T04:32:11.505Z,8.60
2018-09-24T04:35:20.998Z,8.60
2018-09-24T04:38:30.503Z,8.50
2018-09-24T04:41:39.968Z,8.40
2018-09-24T04:44:50.150Z,8.30
2018-09-24T04:47:59.548Z,8.30
2018-09-24T04:51:09.326Z,8.20
2018-09-24T04:54:19.379Z,8.10
2018-09-24T04:57:28.983Z,8.10
2018-09-24T05:00:38.340Z,8.10
2018-09-24T05:03:47.624Z,8.10
2018-09-24T05:06:57.029Z,8.00
2018-09-24T05:10:06.438Z,8.00
2018-09-24T05:13:16.072Z,7.80
2018-09-24T05:16:25.458Z,7.70
2018-09-24T05:19:34.852Z,7.60
2018-09-24T05:22:44.301Z,7.50
2018-09-24T05:25:54.121Z,7.50
2018-09-24T05:29:03.593Z,7.60
2018-09-24T05:32:13.255Z,7.50
2018-09-24T05:35:22.776Z,7.50
2018-09-24T05:38:32.154Z,7.50
2018-09-24T05:41:41.626Z,7.50
2018-09-24T05:44:50.957Z,7.60
2018-09-24T05:48:00.399Z,7.70
2018-09-24T05:51:10.022Z,7.70
2018-09-24T05:54:19.483Z,7.70
2018-09-24T05:57:28.970Z,7.70
2018-09-24T06:00:38.230Z,7.90
2018-09-24T06:03:47.769Z,7.80
2018-09-24T06:06:57.144Z,8.00
2018-09-24T06:10:06.651Z,8.30
2018-09-24T06:13:16.033Z,8.60
2018-09-24T06:16:25.318Z,8.60
2018-09-24T06:19:34.771Z,8.80
2018-09-24T06:22:44.325Z,8.70
2018-09-24T06:25:53.802Z,8.70
2018-09-24T06:29:03.244Z,9.30
2018-09-24T06:35:36.804Z,9.20
2018-09-24T06:38:53.934Z,10.00
2018-09-24T06:42:03.247Z,11.00
2018-09-24T06:45:12.651Z,12.50
2018-09-24T06:48:21.829Z,13.00
2018-09-24T06:51:31.089Z,13.70
2018-09-24T06:54:40.538Z,13.50
2018-09-24T06:57:49.962Z,13.20
2018-09-24T07:00:59.300Z,13.10
2018-09-24T07:04:09.270Z,13.80
2018-09-24T07:07:18.716Z,14.50
2018-09-24T07:10:28.173Z,14.80
2018-09-24T07:13:37.588Z,15.20
2018-09-24T07:16:47.046Z,15.10
2018-09-24T07:19:56.477Z,15.10
2018-09-24T07:23:05.805Z,15.80
2018-09-24T07:26:15.474Z,15.50
2018-09-24T07:29:24.743Z,14.50
2018-09-24T07:32:34.177Z,13.90
2018-09-24T07:35:43.824Z,13.20
2018-09-24T07:38:53.215Z,13.00
2018-09-24T07:42:02.649Z,13.40
2018-09-24T07:45:12.214Z,13.10
2018-09-24T07:48:21.479Z,14.00
2018-09-24T07:51:30.978Z,14.80
2018-09-24T07:54:41.534Z,14.80
2018-09-24T07:57:50.950Z,15.60
2018-09-24T08:01:01.621Z,15.40
2018-09-24T08:04:11.912Z,14.60
2018-09-24T08:07:21.259Z,13.90
2018-09-24T08:10:30.678Z,13.50
2018-09-24T08:13:40.210Z,13.50
2018-09-24T08:16:49.605Z,13.40
2018-09-24T08:19:59.155Z,12.90
2018-09-24T08:23:08.663Z,13.20
2018-09-24T08:26:18.082Z,13.30
2018-09-24T08:29:27.404Z,13.50
2018-09-24T08:32:36.814Z,14.00
2018-09-24T08:35:46.230Z,14.00
2018-09-24T08:38:56.358Z,13.80
2018-09-24T08:42:05.699Z,13.50
2018-09-24T08:45:15.214Z,13.20
2018-09-24T08:48:24.735Z,13.30
2018-09-24T08:51:34.217Z,13.20
2018-09-24T08:54:43.900Z,13.90
2018-09-24T08:57:53.351Z,14.10
2018-09-24T09:01:04.412Z,14.50
2018-09-24T09:04:14.222Z,14.70
2018-09-24T09:07:23.647Z,15.70
2018-09-24T09:10:33.112Z,16.00
2018-09-24T09:13:42.535Z,16.50
2018-09-24T09:16:52.136Z,15.80
2018-09-24T09:20:02.285Z,15.20
2018-09-24T09:23:12.042Z,14.50
2018-09-24T09:26:21.416Z,14.40
2018-09-24T09:29:30.970Z,14.70
2018-09-24T09:32:40.219Z,14.30
2018-09-24T09:35:49.617Z,14.10
2018-09-24T09:38:59.072Z,14.40
2018-09-24T09:42:08.521Z,13.90
2018-09-24T09:45:18.034Z,13.60
2018-09-24T09:48:27.686Z,13.60
2018-09-24T09:51:37.123Z,13.70
2018-09-24T09:54:46.411Z,14.50
2018-09-24T09:57:56.023Z,15.70
2018-09-24T10:01:05.644Z,14.90
2018-09-24T10:04:15.206Z,14.30
2018-09-24T10:07:24.827Z,15.00
2018-09-24T10:10:34.199Z,15.10
2018-09-24T10:13:43.705Z,14.80
2018-09-24T10:16:53.489Z,14.50
2018-09-24T10:20:03.280Z,14.40
2018-09-24T10:23:12.921Z,14.20
2018-09-24T10:26:22.599Z,14.40
2018-09-24T10:29:31.887Z,14.80
2018-09-24T10:32:41.259Z,14.40
2018-09-24T10:35:50.581Z,14.10
2018-09-24T10:39:00.075Z,13.70
2018-09-24T10:42:09.513Z,13.40
2018-09-24T10:45:18.961Z,14.00
2018-09-24T10:48:28.501Z,13.70
2018-09-24T10:51:38.958Z,13.50
2018-09-24T10:54:48.522Z,13.20
2018-09-24T10:57:58.020Z,13.40
2018-09-24T11:01:07.377Z,13.80
2018-09-24T11:04:16.714Z,13.80
2018-09-24T11:07:26.190Z,13.80
2018-09-24T11:10:35.711Z,13.90
2018-09-24T11:13:44.931Z,13.30
2018-09-24T11:16:54.647Z,12.60
2018-09-24T11:20:03.896Z,12.30
2018-09-24T11:23:14.060Z,13.70
2018-09-24T11:29:32.932Z,15.20
2018-09-24T11:32:42.322Z,13.80
2018-09-24T11:35:51.719Z,13.80
2018-09-24T11:39:01.379Z,14.30
2018-09-24T11:42:10.853Z,14.30
2018-09-24T11:45:20.268Z,14.00
2018-09-24T11:48:29.606Z,13.90
2018-09-24T11:51:39.071Z,14.10
2018-09-24T11:54:49.663Z,14.20
2018-09-24T11:57:59.139Z,14.30
2018-09-24T12:01:08.422Z,14.20
2018-09-24T12:04:18.013Z,13.90
2018-09-24T12:07:28.245Z,13.60
2018-09-24T12:10:38.485Z,13.60
2018-09-24T12:13:48.031Z,13.80
2018-09-24T12:16:57.547Z,14.10
2018-09-24T12:20:07.056Z,14.10
2018-09-24T12:23:16.505Z,14.20
2018-09-24T12:26:25.909Z,14.30
2018-09-24T12:29:35.173Z,14.40
2018-09-24T12:32:44.626Z,14.20
2018-09-24T12:35:54.254Z,14.20
2018-09-24T12:39:03.701Z,14.20
2018-09-24T12:42:13.357Z,14.00
2018-09-24T12:45:22.821Z,13.20
2018-09-24T12:48:32.233Z,12.90
2018-09-24T12:51:41.511Z,12.90
2018-09-24T12:54:50.840Z,12.80
2018-09-24T12:58:00.243Z,12.90
2018-09-24T13:01:09.765Z,12.90
2018-09-24T13:04:19.687Z,13.00
2018-09-24T13:07:28.949Z,13.00
2018-09-24T13:10:39.279Z,13.30
2018-09-24T13:13:48.818Z,13.50
2018-09-24T13:16:58.360Z,13.80
2018-09-24T13:20:07.978Z,13.90
2018-09-24T13:23:17.462Z,13.80
2018-09-24T13:26:27.163Z,13.90
2018-09-24T13:29:36.657Z,14.10
2018-09-24T13:32:46.138Z,14.20
2018-09-24T13:35:55.455Z,14.20
2018-09-24T13:39:05.538Z,14.20
2018-09-24T13:42:15.061Z,14.30
2018-09-24T13:45:24.563Z,14.30
2018-09-24T13:48:34.045Z,14.30
2018-09-24T13:51:43.717Z,14.40
2018-09-24T13:54:53.299Z,14.60
2018-09-24T13:58:02.732Z,14.40
2018-09-24T14:01:12.228Z,14.40
2018-09-24T14:04:21.561Z,14.30
2018-09-24T14:07:31.245Z,14.40
2018-09-24T14:10:41.620Z,14.30
2018-09-24T14:13:51.224Z,14.20
2018-09-24T14:17:00.762Z,14.00
2018-09-24T14:20:10.403Z,13.90
2018-09-24T14:23:19.856Z,13.90
2018-09-24T14:26:29.210Z,13.80
2018-09-24T14:29:38.635Z,13.80
2018-09-24T14:32:48.142Z,13.90
2018-09-24T14:35:57.594Z,14.00
2018-09-24T14:39:07.275Z,13.90
2018-09-24T14:42:16.811Z,13.90
2018-09-24T14:45:27.368Z,14.00
2018-09-24T14:48:36.913Z,13.90
2018-09-24T14:51:47.587Z,13.90
2018-09-24T14:54:56.895Z,14.00
2018-09-24T14:58:06.257Z,14.20
2018-09-24T15:01:15.827Z,14.20
2018-09-24T15:04:25.758Z,14.40
2018-09-24T15:07:35.224Z,14.40
2018-09-24T15:10:44.620Z,14.40
2018-09-24T15:13:54.319Z,14.30
2018-09-24T15:17:03.628Z,14.30
2018-09-24T15:20:13.243Z,14.10
2018-09-24T15:23:22.842Z,14.00
2018-09-24T15:26:32.390Z,13.70
2018-09-24T15:29:41.805Z,13.00
2018-09-24T15:32:51.282Z,12.40
2018-09-24T15:36:01.325Z,12.10
2018-09-24T15:39:12.305Z,11.90
2018-09-24T15:42:21.681Z,12.00
2018-09-24T15:45:31.083Z,12.00
2018-09-24T15:48:40.570Z,12.00
2018-09-24T15:51:50.151Z,11.80
2018-09-24T15:54:59.922Z,11.70
2018-09-24T15:58:09.272Z,11.60
2018-09-24T16:01:18.737Z,11.50
2018-09-24T16:04:29.053Z,11.40
2018-09-24T16:07:38.744Z,11.20
2018-09-24T16:10:48.066Z,11.00
2018-09-24T16:13:57.278Z,10.70
2018-09-24T16:17:06.764Z,10.50
2018-09-24T16:20:16.220Z,10.30
2018-09-24T16:23:25.690Z,10.00
2018-09-24T16:26:35.310Z,9.80
2018-09-24T16:29:45.636Z,9.70
2018-09-24T16:32:55.177Z,9.70
2018-09-24T16:36:04.706Z,9.70
2018-09-24T16:39:14.625Z,9.70
2018-09-24T16:42:24.380Z,9.60
2018-09-24T16:45:33.802Z,9.60
2018-09-24T16:48:43.722Z,9.70
2018-09-24T16:51:53.069Z,9.70
2018-09-24T16:55:02.560Z,9.80
2018-09-24T16:58:12.175Z,9.70
2018-09-24T17:01:21.607Z,9.60
2018-09-24T17:04:31.092Z,9.60
2018-09-24T17:07:40.471Z,9.40
2018-09-24T17:10:49.838Z,9.30
2018-09-24T17:13:59.197Z,9.40
2018-09-24T17:17:08.534Z,9.30
2018-09-24T17:20:17.958Z,9.30
2018-09-24T17:23:27.323Z,9.30
2018-09-24T17:26:37.058Z,9.20
2018-09-24T17:29:46.521Z,9.20
2018-09-24T17:32:57.026Z,9.10
2018-09-24T17:36:07.470Z,9.00
2018-09-24T17:39:17.097Z,8.90
2018-09-24T17:42:26.802Z,8.90
2018-09-24T17:45:36.308Z,8.90
2018-09-24T17:48:45.694Z,9.00
2018-09-24T17:51:55.142Z,9.00
2018-09-24T17:55:04.690Z,8.90
2018-09-24T17:58:14.117Z,8.90
2018-09-24T18:01:24.468Z,9.00
2018-09-24T18:04:33.810Z,9.00
2018-09-24T18:07:43.387Z,8.90
2018-09-24T18:10:52.816Z,8.90
2018-09-24T18:14:02.886Z,8.80
2018-09-24T18:17:12.161Z,8.60
2018-09-24T18:20:21.753Z,8.60
2018-09-24T18:23:31.308Z,8.60
2018-09-24T18:26:40.720Z,8.60
2018-09-24T18:29:50.348Z,8.60
2018-09-24T18:33:00.101Z,8.50
2018-09-24T18:36:10.156Z,8.50
2018-09-24T18:39:19.641Z,8.60
2018-09-24T18:42:29.321Z,8.50
2018-09-24T18:45:39.179Z,8.50
2018-09-24T18:48:48.543Z,8.40
2018-09-24T18:51:57.996Z,8.40
2018-09-24T18:55:07.295Z,8.40
2018-09-24T18:58:16.621Z,8.40
2018-09-24T19:01:26.300Z,8.50
2018-09-24T19:04:35.982Z,8.50
2018-09-24T19:07:45.427Z,8.40
2018-09-24T19:10:54.731Z,8.50
2018-09-24T19:14:05.035Z,8.40
2018-09-24T19:17:14.343Z,8.50
2018-09-24T19:20:24.533Z,8.60
2018-09-24T19:23:33.875Z,8.60
2018-09-24T19:26:43.919Z,8.50
2018-09-24T19:29:53.483Z,8.60
2018-09-24T19:33:02.992Z,8.60
2018-09-24T19:36:12.439Z,8.50
2018-09-24T19:39:21.810Z,8.50
2018-09-24T19:42:31.198Z,8.50
2018-09-24T19:45:40.665Z,8.40
2018-09-24T19:48:50.175Z,8.20
2018-09-24T19:51:59.685Z,8.10
2018-09-24T19:55:09.304Z,8.00
2018-09-24T19:58:19.447Z,7.90
2018-09-24T20:01:28.867Z,7.80
2018-09-24T20:04:38.338Z,7.70
2018-09-24T20:07:48.183Z,7.70
2018-09-24T20:10:57.727Z,7.60
2018-09-24T20:14:07.122Z,7.50
2018-09-24T20:17:16.533Z,7.50
2018-09-24T20:20:26.026Z,7.50
2018-09-24T20:23:35.593Z,7.50
2018-09-24T20:26:45.455Z,7.40
2018-09-24T20:29:54.759Z,7.50
2018-09-24T20:33:04.187Z,7.60
2018-09-24T20:36:13.638Z,7.70
2018-09-24T20:39:22.972Z,7.60
2018-09-24T20:42:32.514Z,7.70
2018-09-24T20:45:42.018Z,7.70
2018-09-24T20:48:51.274Z,7.70
2018-09-24T20:52:00.708Z,7.70
2018-09-24T20:55:10.228Z,7.60
2018-09-24T20:58:19.601Z,7.70
2018-09-24T21:01:28.936Z,7.80
2018-09-24T21:04:38.318Z,7.80
2018-09-24T21:07:47.844Z,7.80
2018-09-24T21:10:57.286Z,7.80
2018-09-24T21:14:06.613Z,7.70
2018-09-24T21:17:15.880Z,7.50
2018-09-24T21:20:25.260Z,7.40
2018-09-24T21:23:34.696Z,7.10
2018-09-24T21:26:45.112Z,7.00
2018-09-24T21:29:54.537Z,7.20
2018-09-24T21:33:04.059Z,7.30
2018-09-24T21:36:20.429Z,7.30
2018-09-24T21:39:29.687Z,7.30
2018-09-24T21:42:39.300Z,7.20
2018-09-24T21:45:48.911Z,7.10
2018-09-24T21:48:58.239Z,7.00
2018-09-24T21:52:07.779Z,6.80
2018-09-24T21:55:17.194Z,6.90
2018-09-24T21:58:26.840Z,6.90
2018-09-24T22:01:36.389Z,6.80
2018-09-24T22:04:45.866Z,6.80
2018-09-24T22:07:55.308Z,6.80
2018-09-24T22:11:04.603Z,6.80
2018-09-24T22:14:13.987Z,6.70
2018-09-24T22:17:23.400Z,6.60
2018-09-24T22:20:32.772Z,6.60
2018-09-24T22:23:42.832Z,6.50
2018-09-24T22:26:52.156Z,6.60
2018-09-24T22:30:01.752Z,6.50
2018-09-24T22:33:11.294Z,6.40
2018-09-24T22:36:20.659Z,6.40
2018-09-24T22:39:30.016Z,6.30
2018-09-24T22:42:39.340Z,6.20
2018-09-24T22:45:48.744Z,6.20
2018-09-24T22:48:58.088Z,6.30
2018-09-24T22:52:07.530Z,6.30
2018-09-24T22:55:17.005Z,6.20
2018-09-24T22:58:27.500Z,6.20
2018-09-24T23:01:37.306Z,6.10
2018-09-24T23:04:46.732Z,6.10
2018-09-24T23:07:56.172Z,6.00
2018-09-24T23:11:05.678Z,5.80
2018-09-24T23:14:15.112Z,5.60
2018-09-24T23:17:24.324Z,5.50
2018-09-24T23:20:33.676Z,5.60
2018-09-24T23:23:43.492Z,5.60
2018-09-24T23:26:53.940Z,5.50
2018-09-24T23:30:03.282Z,5.40
2018-09-24T23:33:12.605Z,5.50
2018-09-24T23:36:21.946Z,5.50
2018-09-24T23:39:31.430Z,5.30
2018-09-24T23:42:40.862Z,5.30
2018-09-24T23:45:50.315Z,5.40
2018-09-24T23:48:59.824Z,5.50
2018-09-24T23:52:09.330Z,5.60
2018-09-24T23:55:18.741Z,5.60
2018-09-24T23:58:28.168Z,5.70
